Time;durP1;ratioP1;P1;durP2;ratioP2;P2;SDS_P1;SDS_P2;PMS_P1;PMS_P2;Temp;Humidity;BMP_temperature;BMP_pressure;BME280_temperature;BME280_humidity;BME280_pressure;Samples;Min_cycle;Max_cycle;Signal;HPM_P1;HPM_P2
2023/09/13 00:00:11;;;;;;;2.73;1.77;;;;;;;15.00;59.15;93779.81;524355;28;800;-46
2023/09/13 00:00:27;;;;;;;3.75;1.70;;;;;;;15.00;59.00;93775.00;524210;28;837;-46
2023/09/13 00:00:48;;;;;;;3.40;1.57;;;;;;;15.01;59.09;93782.00;524258;28;933;-46
2023/09/13 00:01:03;;;;;;;4.53;1.95;;;;;;;15.00;59.07;93780.53;524286;28;844;-46
2023/09/13 00:01:19;;;;;;;5.45;1.83;;;;;;;15.00;58.97;93779.81;524317;28;859;-46
2023/09/13 00:01:34;;;;;;;2.47;1.70;;;;;;;14.98;59.29;93780.38;524366;28;812;-45
2023/09/13 00:01:50;;;;;;;2.63;1.90;;;;;;;14.99;59.37;93781.84;524239;28;1482;-47
2023/09/13 00:02:05;;;;;;;3.35;2.08;;;;;;;15.00;59.39;93779.81;524297;28;914;-46
2023/09/13 00:02:20;;;;;;;3.53;1.93;;;;;;;14.99;59.34;93775.53;524341;28;768;-46
2023/09/13 00:02:36;;;;;;;3.10;1.80;;;;;;;14.98;59.32;93780.38;524289;28;795;-45
2023/09/13 00:02:52;;;;;;;3.50;2.00;;;;;;;14.98;59.46;93780.38;524330;28;862;-46
2023/09/13 00:03:07;;;;;;;3.23;1.90;;;;;;;14.99;59.52;93779.06;524246;28;768;-45
2023/09/13 00:03:22;;;;;;;2.03;1.87;;;;;;;14.99;59.25;93772.75;524216;28;850;-46
2023/09/13 00:03:38;;;;;;;5.32;1.83;;;;;;;14.98;59.20;93774.81;524294;28;819;-46
2023/09/13 00:03:53;;;;;;;9.03;1.77;;;;;;;14.98;59.31;93780.38;524250;28;1612;-46
2023/09/13 00:04:09;;;;;;;6.37;1.90;;;;;;;14.97;59.24;93781.69;524298;28;866;-46
2023/09/13 00:04:24;;;;;;;3.03;1.83;;;;;;;14.88;59.40;93770.44;524304;28;930;-45
2023/09/13 00:04:39;;;;;;;4.80;2.17;;;;;;;14.97;59.25;93781.69;524149;28;772;-46
2023/09/13 00:04:56;;;;;;;3.88;2.20;;;;;;;14.96;59.35;93776.69;524114;28;795;-45
2023/09/13 00:05:12;;;;;;;2.10;1.90;;;;;;;14.96;59.47;93783.00;524153;28;922;-46
2023/09/13 00:05:27;;;;;;;3.15;1.92;;;;;;;14.95;59.36;93778.72;524026;28;851;-45
2023/09/13 00:05:43;;;;;;;4.73;1.87;;;;;;;14.95;59.56;93773.16;524119;28;859;-45
2023/09/13 00:05:58;;;;;;;7.35;1.90;;;;;;;14.97;59.30;93773.34;524055;28;1240;-46
2023/09/13 00:06:14;;;;;;;5.13;1.83;;;;;;;14.91;59.46;93767.28;524081;28;870;-45
2023/09/13 00:06:29;;;;;;;2.33;1.48;;;;;;;14.95;59.44;93781.50;523967;28;2347;-47
2023/09/13 00:06:45;;;;;;;1.70;1.33;;;;;;;14.96;59.44;93776.69;524263;28;868;-45
2023/09/13 00:07:00;;;;;;;2.53;1.48;;;;;;;14.91;59.44;93770.06;524014;28;1321;-46
2023/09/13 00:07:15;;;;;;;2.37;1.77;;;;;;;14.92;59.51;93777.06;524129;28;762;-46
2023/09/13 00:07:31;;;;;;;2.20;1.97;;;;;;;14.92;59.47;93771.50;524042;28;849;-46
2023/09/13 00:07:47;;;;;;;4.43;2.10;;;;;;;14.92;59.42;93776.38;524122;28;851;-45
2023/09/13 00:08:02;;;;;;;4.35;2.03;;;;;;;14.90;59.35;93774.13;523996;28;926;-47
2023/09/13 00:08:18;;;;;;;2.10;1.70;;;;;;;14.90;59.50;93774.13;524071;28;858;-45
2023/09/13 00:08:33;;;;;;;1.60;1.45;;;;;;;14.70;59.44;93747.44;524139;28;852;-45
2023/09/13 00:08:48;;;;;;;1.63;1.53;;;;;;;14.86;59.39;93779.34;524161;28;892;-45
2023/09/13 00:09:04;;;;;;;1.83;1.67;;;;;;;14.85;59.37;93777.91;524180;28;1044;-46
2023/09/13 00:09:19;;;;;;;2.20;1.73;;;;;;;14.85;59.29;93777.91;523971;28;2540;-45
2023/09/13 00:09:35;;;;;;;2.45;1.90;;;;;;;14.85;59.13;93774.38;524072;28;871;-46
2023/09/13 00:09:50;;;;;;;3.80;2.10;;;;;;;14.85;59.10;93772.34;524104;28;816;-46
2023/09/13 00:10:06;;;;;;;3.80;2.17;;;;;;;14.85;59.01;93777.16;524054;28;1005;-48
2023/09/13 00:10:21;;;;;;;2.25;1.77;;;;;;;14.85;58.98;93777.16;524117;28;878;-45
2023/09/13 00:10:37;;;;;;;2.17;1.60;;;;;;;14.85;59.17;93774.38;524044;28;871;-45
2023/09/13 00:10:52;;;;;;;2.50;2.10;;;;;;;14.85;59.35;93772.34;524100;28;847;-46
2023/09/13 00:11:07;;;;;;;2.88;2.35;;;;;;;14.85;59.26;93771.59;524008;28;847;-46
2023/09/13 00:11:23;;;;;;;2.17;1.87;;;;;;;14.85;59.17;93772.34;524342;28;765;-45
2023/09/13 00:11:38;;;;;;;1.63;1.53;;;;;;;14.86;58.94;93773.06;524195;28;1052;-45
2023/09/13 00:11:53;;;;;;;1.80;1.70;;;;;;;14.87;58.73;93780.09;524320;28;780;-46
2023/09/13 00:12:09;;;;;;;1.83;1.73;;;;;;;14.86;58.75;93776.56;524158;28;1166;-46
2023/09/13 00:12:25;;;;;;;1.70;1.60;;;;;;;14.85;58.60;93775.13;524332;28;849;-46
2023/09/13 00:12:42;;;;;;;2.55;1.60;;;;;;;14.84;58.58;93787.53;524216;28;875;-46
2023/09/13 00:12:58;;;;;;;4.03;1.67;;;;;;;14.85;58.64;93775.13;524093;28;979;-45
2023/09/13 00:13:13;;;;;;;4.60;1.80;;;;;;;14.72;58.61;93758.75;524079;28;883;-46
2023/09/13 00:13:29;;;;;;;2.38;1.63;;;;;;;14.76;58.75;93772.97;524119;28;806;-47
2023/09/13 00:13:44;;;;;;;1.80;1.70;;;;;;;14.84;58.75;93786.78;524174;28;811;-45
2023/09/13 00:14:00;;;;;;;2.00;1.80;;;;;;;14.83;58.83;93774.94;524040;28;1228;-45
2023/09/13 00:14:15;;;;;;;2.00;1.80;;;;;;;14.84;58.68;93784.75;524160;28;768;-45
2023/09/13 00:14:31;;;;;;;2.10;1.90;;;;;;;14.85;59.00;93777.16;524095;28;875;-45
2023/09/13 00:14:47;;;;;;;2.90;1.90;;;;;;;14.84;58.90;93784.75;524040;28;847;-46
2023/09/13 00:15:03;;;;;;;3.03;1.80;;;;;;;14.84;58.89;93773.63;524287;28;870;-46
2023/09/13 00:15:18;;;;;;;1.97;1.67;;;;;;;14.73;58.79;93759.44;524258;28;776;-46
2023/09/13 00:15:34;;;;;;;1.70;1.50;;;;;;;14.83;58.69;93771.44;524169;28;878;-45
2023/09/13 00:15:49;;;;;;;1.70;1.50;;;;;;;14.82;58.60;93781.81;524222;28;787;-46
2023/09/13 00:16:05;;;;;;;1.87;1.60;;;;;;;14.83;58.45;93786.06;524302;28;803;-45
2023/09/13 00:16:20;;;;;;;1.83;1.73;;;;;;;14.83;58.26;93786.06;524227;28;926;-45
2023/09/13 00:16:35;;;;;;;2.23;2.00;;;;;;;14.80;58.27;93772.56;524185;28;839;-46
2023/09/13 00:16:51;;;;;;;6.45;2.13;;;;;;;14.84;58.22;93776.41;524232;28;882;-45
2023/09/13 00:17:06;;;;;;;8.07;2.30;;;;;;;14.82;58.31;93784.59;524202;28;764;-46
2023/09/13 00:17:22;;;;;;;4.70;2.30;;;;;;;14.79;58.37;93779.44;524243;28;890;-46
2023/09/13 00:17:37;;;;;;;3.72;2.05;;;;;;;14.81;58.41;93771.25;524239;28;807;-46
2023/09/13 00:17:52;;;;;;;2.60;1.67;;;;;;;14.81;58.53;93783.09;524286;28;835;-46
2023/09/13 00:18:08;;;;;;;2.35;1.83;;;;;;;14.80;58.52;93773.31;524233;28;823;-46
2023/09/13 00:18:23;;;;;;;2.80;2.10;;;;;;;14.80;58.55;93769.78;524259;28;910;-46
2023/09/13 00:18:39;;;;;;;2.83;2.07;;;;;;;14.81;58.60;93774.03;524223;28;1006;-45
2023/09/13 00:18:54;;;;;;;2.63;2.03;;;;;;;14.81;58.49;93776.81;524268;28;847;-45
2023/09/13 00:19:09;;;;;;;3.33;1.90;;;;;;;14.76;58.43;93766.66;524178;28;1520;-46
2023/09/13 00:19:27;;;;;;;3.63;1.90;;;;;;;14.80;58.56;93780.91;524195;28;867;-45
2023/09/13 00:19:42;;;;;;;1.88;1.70;;;;;;;14.81;58.44;93777.53;524328;28;948;-46
2023/09/13 00:19:58;;;;;;;3.07;1.63;;;;;;;14.81;58.62;93779.59;524208;28;1214;-45
2023/09/13 00:20:13;;;;;;;4.57;1.58;;;;;;;14.80;58.55;93776.06;524219;28;884;-45
2023/09/13 00:20:28;;;;;;;4.63;1.87;;;;;;;14.80;58.73;93781.63;524294;28;839;-45
2023/09/13 00:20:44;;;;;;;3.17;1.97;;;;;;;14.79;58.64;93780.16;524270;28;843;-46
2023/09/13 00:20:59;;;;;;;2.92;2.10;;;;;;;14.79;58.58;93779.44;524220;28;821;-46
2023/09/13 00:21:15;;;;;;;2.40;2.20;;;;;;;14.78;58.61;93778.69;524222;28;809;-46
2023/09/13 00:21:31;;;;;;;2.35;2.03;;;;;;;14.78;58.68;93780.72;524292;28;863;-45
2023/09/13 00:21:48;;;;;;;2.88;2.00;;;;;;;14.77;58.75;93791.09;524176;28;900;-46
2023/09/13 00:22:03;;;;;;;2.22;1.90;;;;;;;14.76;58.66;93786.13;524283;28;892;-46
2023/09/13 00:22:19;;;;;;;1.93;1.73;;;;;;;14.75;58.62;93782.59;524011;28;904;-46
2023/09/13 00:22:34;;;;;;;2.22;1.90;;;;;;;14.74;58.61;93781.13;524034;28;1576;-45
2023/09/13 00:22:49;;;;;;;3.13;2.37;;;;;;;14.74;58.66;93783.19;524079;28;788;-46
2023/09/13 00:23:06;;;;;;;2.70;2.10;;;;;;;14.73;58.68;93779.66;524106;28;790;-45
2023/09/13 00:23:21;;;;;;;2.28;2.08;;;;;;;14.73;58.69;93776.13;524069;28;945;-45
2023/09/13 00:23:36;;;;;;;2.53;2.13;;;;;;;14.73;58.74;93787.25;524047;28;752;-46
2023/09/13 00:23:52;;;;;;;2.43;2.20;;;;;;;14.67;58.72;93773.59;524077;28;828;-45
2023/09/13 00:24:07;;;;;;;2.50;2.23;;;;;;;14.70;58.89;93777.28;524039;28;764;-45
2023/09/13 00:24:23;;;;;;;2.72;1.83;;;;;;;14.69;58.89;93778.56;524180;28;866;-46
2023/09/13 00:24:38;;;;;;;3.20;2.10;;;;;;;14.68;58.91;93779.91;524271;28;817;-46
2023/09/13 00:24:54;;;;;;;3.80;2.50;;;;;;;14.63;58.82;93770.47;524176;28;870;-46
2023/09/13 00:25:09;;;;;;;4.00;2.70;;;;;;;14.68;58.81;93783.41;524166;28;851;-45
2023/09/13 00:25:25;;;;;;;2.97;2.25;;;;;;;14.69;58.92;93784.88;524137;28;885;-45
2023/09/13 00:25:40;;;;;;;2.17;1.90;;;;;;;14.69;58.93;93787.66;524202;28;863;-46
2023/09/13 00:25:55;;;;;;;2.40;1.83;;;;;;;14.68;58.59;93777.84;524191;28;873;-45
2023/09/13 00:26:11;;;;;;;3.60;1.90;;;;;;;14.70;59.01;93782.84;524266;28;850;-46
2023/09/13 00:26:26;;;;;;;3.42;2.00;;;;;;;14.70;59.01;93780.06;524223;28;924;-45
2023/09/13 00:26:42;;;;;;;2.63;2.07;;;;;;;14.70;59.05;93775.25;524269;28;804;-47
2023/09/13 00:26:57;;;;;;;2.97;2.20;;;;;;;14.70;59.20;93780.81;524199;28;784;-45
2023/09/13 00:27:13;;;;;;;4.03;2.30;;;;;;;14.71;59.06;93787.81;523963;28;1051;-45
2023/09/13 00:27:28;;;;;;;3.63;2.23;;;;;;;14.71;59.20;93779.47;524037;28;777;-45
2023/09/13 00:27:43;;;;;;;2.55;2.15;;;;;;;14.71;59.16;93782.25;524127;28;878;-47
2023/09/13 00:27:59;;;;;;;2.37;2.07;;;;;;;14.72;59.07;93780.22;523988;28;867;-45
2023/09/13 00:28:14;;;;;;;2.87;2.00;;;;;;;14.73;59.17;93776.13;524050;28;1689;-45
2023/09/13 00:28:30;;;;;;;3.90;2.33;;;;;;;14.73;59.12;93774.09;524069;28;846;-47
2023/09/13 00:28:46;;;;;;;2.87;2.17;;;;;;;14.73;58.93;93778.91;524008;28;1060;-47
2023/09/13 00:29:02;;;;;;;2.40;1.85;;;;;;;14.74;59.00;93777.63;524059;28;894;-45
2023/09/13 00:29:17;;;;;;;2.07;1.73;;;;;;;14.73;59.03;93773.34;524211;28;800;-46
2023/09/13 00:29:34;;;;;;;2.63;1.88;;;;;;;14.71;59.00;93773.94;524193;28;886;-46
2023/09/13 00:29:49;;;;;;;3.15;2.20;;;;;;;14.73;58.96;93776.13;524215;28;847;-45
2023/09/13 00:30:08;;;;;;;2.53;2.10;;;;;;;14.72;58.97;93780.97;524278;28;764;-46
2023/09/13 00:30:24;;;;;;;2.70;1.98;;;;;;;14.71;58.99;93773.94;524176;28;905;-45
2023/09/13 00:30:39;;;;;;;2.60;2.13;;;;;;;14.70;59.01;93775.25;524007;28;815;-45
2023/09/13 00:30:54;;;;;;;2.23;2.03;;;;;;;14.71;59.09;93775.97;523987;28;832;-45
2023/09/13 00:31:10;;;;;;;2.45;2.10;;;;;;;14.70;59.18;93775.25;524014;28;824;-45
2023/09/13 00:31:25;;;;;;;3.20;2.13;;;;;;;14.70;59.23;93778.03;524088;28;1057;-46
2023/09/13 00:31:41;;;;;;;3.57;2.17;;;;;;;14.71;59.24;93778.75;524061;28;910;-46
2023/09/13 00:31:56;;;;;;;2.53;2.05;;;;;;;14.70;59.08;93778.03;524042;28;876;-45
2023/09/13 00:32:11;;;;;;;2.33;1.83;;;;;;;14.70;59.06;93775.25;524019;28;917;-45
2023/09/13 00:32:27;;;;;;;2.70;1.80;;;;;;;14.70;58.90;93777.28;524044;28;1557;-45
2023/09/13 00:32:42;;;;;;;2.67;1.80;;;;;;;14.69;59.09;93775.78;524176;28;1905;-46
2023/09/13 00:32:58;;;;;;;4.50;2.10;;;;;;;14.69;59.23;93773.00;524172;28;970;-46
2023/09/13 00:33:13;;;;;;;3.75;2.05;;;;;;;14.68;59.25;93775.06;524189;28;929;-45
2023/09/13 00:33:29;;;;;;;3.03;2.17;;;;;;;14.69;59.23;93781.34;524131;28;866;-45
2023/09/13 00:33:45;;;;;;;3.60;2.10;;;;;;;14.69;59.35;93775.78;524286;28;1000;-45
2023/09/13 00:34:01;;;;;;;2.83;1.70;;;;;;;14.68;59.43;93775.06;524175;28;891;-45
2023/09/13 00:34:16;;;;;;;5.15;1.90;;;;;;;14.67;59.31;93776.38;524197;28;851;-46
2023/09/13 00:34:32;;;;;;;6.37;1.93;;;;;;;14.69;59.37;93778.56;524215;28;889;-47
2023/09/13 00:34:47;;;;;;;4.63;1.70;;;;;;;14.69;59.45;93770.22;524213;28;832;-45
2023/09/13 00:35:03;;;;;;;3.03;2.00;;;;;;;14.68;59.58;93774.34;524177;28;898;-45
2023/09/13 00:35:18;;;;;;;2.27;2.07;;;;;;;14.66;59.45;93774.88;524131;28;1018;-46
2023/09/13 00:35:33;;;;;;;1.95;1.80;;;;;;;14.65;59.55;93770.66;524193;28;1141;-45
2023/09/13 00:35:49;;;;;;;2.83;2.00;;;;;;;14.66;59.43;93774.88;524190;28;839;-46
2023/09/13 00:36:04;;;;;;;4.00;2.13;;;;;;;14.65;59.41;93773.41;524004;28;1099;-46
2023/09/13 00:36:20;;;;;;;3.77;2.10;;;;;;;14.65;59.54;93778.25;524216;28;752;-46
2023/09/13 00:36:35;;;;;;;2.33;1.85;;;;;;;14.66;59.75;93776.94;524127;28;850;-46
2023/09/13 00:36:51;;;;;;;2.17;1.93;;;;;;;14.65;59.76;93775.47;524230;28;775;-45
2023/09/13 00:37:06;;;;;;;2.40;2.00;;;;;;;14.64;59.72;93771.94;524156;28;819;-47
2023/09/13 00:37:21;;;;;;;1.83;1.73;;;;;;;14.63;59.75;93773.25;524162;28;1466;-45
2023/09/13 00:37:37;;;;;;;2.70;1.67;;;;;;;14.61;59.80;93769.56;524142;28;892;-45
2023/09/13 00:37:52;;;;;;;2.97;1.65;;;;;;;14.63;59.79;93772.50;524275;28;808;-45
2023/09/13 00:38:08;;;;;;;1.70;1.57;;;;;;;14.62;59.81;93777.31;524126;28;1069;-46
2023/09/13 00:38:23;;;;;;;2.47;1.90;;;;;;;14.62;59.78;93780.09;524231;28;921;-46
2023/09/13 00:38:39;;;;;;;2.58;1.85;;;;;;;14.62;59.71;93777.31;524124;28;896;-46
2023/09/13 00:38:54;;;;;;;1.90;1.47;;;;;;;14.63;59.65;93770.47;524213;28;773;-45
2023/09/13 00:39:09;;;;;;;1.58;1.48;;;;;;;14.62;59.38;93777.31;524005;28;898;-46
2023/09/13 00:39:25;;;;;;;1.80;1.70;;;;;;;14.63;59.10;93772.50;524066;28;808;-46
2023/09/13 00:39:40;;;;;;;1.70;1.60;;;;;;;14.63;59.19;93778.81;523981;28;871;-46
2023/09/13 00:39:55;;;;;;;1.75;1.65;;;;;;;14.63;59.16;93770.47;524008;28;963;-45
2023/09/13 00:40:11;;;;;;;2.00;1.80;;;;;;;14.63;59.18;93778.06;524077;28;829;-46
2023/09/13 00:40:26;;;;;;;1.70;1.60;;;;;;;14.62;59.13;93774.53;523994;28;810;-46
2023/09/13 00:40:42;;;;;;;2.30;1.70;;;;;;;14.62;59.26;93780.09;524060;28;867;-46
2023/09/13 00:40:57;;;;;;;2.60;1.70;;;;;;;14.63;59.25;93786.41;523969;28;843;-46
2023/09/13 00:41:12;;;;;;;2.83;1.67;;;;;;;14.62;59.23;93780.09;524100;28;946;-46
2023/09/13 00:41:28;;;;;;;2.60;1.75;;;;;;;14.58;59.28;93774.22;524216;28;859;-46
2023/09/13 00:41:43;;;;;;;2.33;1.80;;;;;;;14.61;59.21;93775.88;524113;28;748;-46
2023/09/13 00:41:59;;;;;;;2.23;1.87;;;;;;;14.62;59.12;93776.63;523907;28;883;-46
2023/09/13 00:42:14;;;;;;;2.20;1.70;;;;;;;14.62;59.18;93779.38;524024;28;816;-46
2023/09/13 00:42:29;;;;;;;2.33;1.70;;;;;;;14.61;59.18;93775.13;523979;28;1543;-45
2023/09/13 00:42:45;;;;;;;1.60;1.50;;;;;;;14.61;59.07;93775.88;523990;28;863;-46
2023/09/13 00:43:00;;;;;;;1.70;1.58;;;;;;;14.60;59.02;93779.19;523942;28;939;-46
2023/09/13 00:43:15;;;;;;;3.03;1.70;;;;;;;14.60;59.05;93777.16;524078;28;800;-45
2023/09/13 00:43:31;;;;;;;2.90;1.60;;;;;;;14.60;58.89;93779.19;524042;28;804;-45
2023/09/13 00:43:46;;;;;;;1.60;1.50;;;;;;;14.61;58.68;93775.13;524057;28;782;-48
2023/09/13 00:44:02;;;;;;;1.73;1.63;;;;;;;14.61;58.87;93783.47;524014;28;866;-46
2023/09/13 00:44:17;;;;;;;1.92;1.73;;;;;;;14.60;58.83;93781.97;523994;28;935;-46
2023/09/13 00:44:32;;;;;;;1.50;1.40;;;;;;;14.59;58.76;93784.03;524073;28;881;-45
2023/09/13 00:44:48;;;;;;;1.53;1.43;;;;;;;14.59;59.02;93780.50;524036;28;801;-46
2023/09/13 00:45:03;;;;;;;1.60;1.50;;;;;;;14.58;58.99;93776.25;524187;28;843;-46
2023/09/13 00:45:19;;;;;;;2.28;1.58;;;;;;;14.59;58.99;93786.81;524104;28;879;-47
2023/09/13 00:45:35;;;;;;;2.40;1.73;;;;;;;14.59;58.96;93781.25;524051;28;915;-45
2023/09/13 00:45:51;;;;;;;1.80;1.50;;;;;;;14.56;58.90;93776.06;523977;28;871;-46
2023/09/13 00:46:06;;;;;;;3.83;1.60;;;;;;;14.60;58.88;93776.41;523930;28;860;-45
2023/09/13 00:46:22;;;;;;;6.53;1.67;;;;;;;14.60;59.01;93781.97;522012;28;802;-46
2023/09/13 00:46:38;;;;;;;4.65;1.55;;;;;;;14.48;59.06;93764.28;521887;28;1130;-47
2023/09/13 00:46:54;;;;;;;1.70;1.40;;;;;;;14.58;59.13;93781.81;521980;28;880;-47
2023/09/13 00:47:11;;;;;;;2.33;1.48;;;;;;;14.57;59.08;93781.09;521957;28;839;-47
2023/09/13 00:47:26;;;;;;;1.63;1.45;;;;;;;14.57;59.03;93774.78;522571;28;876;-46
2023/09/13 00:47:42;;;;;;;1.73;1.50;;;;;;;14.55;58.90;93778.13;522031;28;895;-45
2023/09/13 00:47:58;;;;;;;2.15;1.67;;;;;;;14.52;58.98;93773.72;521991;28;856;-45
2023/09/13 00:48:14;;;;;;;2.70;1.80;;;;;;;14.51;59.00;93777.78;519889;28;808;-46
2023/09/13 00:48:30;;;;;;;2.55;1.88;;;;;;;14.49;59.03;93779.66;517859;28;822;-45
2023/09/13 00:48:46;;;;;;;2.20;1.83;;;;;;;14.50;59.17;93783.91;517770;28;1397;-47
2023/09/13 00:49:02;;;;;;;4.30;1.80;;;;;;;14.49;59.17;93783.16;517774;28;1088;-45
2023/09/13 00:49:17;;;;;;;3.50;1.60;;;;;;;14.49;59.06;93780.38;517842;28;844;-46
2023/09/13 00:49:33;;;;;;;1.93;1.70;;;;;;;14.50;59.13;93781.88;518687;28;785;-45
2023/09/13 00:49:48;;;;;;;3.15;1.90;;;;;;;14.49;59.10;93783.16;517841;28;772;-45
2023/09/13 00:50:07;;;;;;;3.77;1.73;;;;;;;14.46;59.13;93772.47;518401;28;931;-46
2023/09/13 00:50:23;;;;;;;2.13;1.60;;;;;;;14.51;59.03;93782.63;520898;28;907;-46
2023/09/13 00:50:38;;;;;;;1.90;1.70;;;;;;;14.50;59.11;93779.09;519856;28;1068;-46
2023/09/13 00:50:55;;;;;;;2.35;1.83;;;;;;;14.51;59.17;93777.06;519907;28;774;-46
2023/09/13 00:51:11;;;;;;;2.10;1.88;;;;;;;14.51;59.10;93782.63;517779;28;899;-46
2023/09/13 00:51:26;;;;;;;2.20;2.00;;;;;;;14.50;59.02;93775.56;517442;28;1178;-45
2023/09/13 00:51:42;;;;;;;2.08;1.90;;;;;;;14.50;59.07;93776.31;518828;28;888;-45
2023/09/13 00:51:57;;;;;;;2.60;1.80;;;;;;;14.44;59.04;93773.03;518839;28;907;-46
2023/09/13 00:52:13;;;;;;;2.47;1.70;;;;;;;14.51;58.92;93777.78;519939;28;800;-46
2023/09/13 00:52:29;;;;;;;2.17;1.77;;;;;;;14.51;59.00;93777.06;520500;28;847;-45
2023/09/13 00:52:45;;;;;;;2.37;2.17;;;;;;;14.50;59.03;93781.88;521911;28;1922;-45
2023/09/13 00:53:00;;;;;;;2.33;2.13;;;;;;;14.50;59.01;93778.34;520356;28;844;-47
2023/09/13 00:53:17;;;;;;;3.33;2.07;;;;;;;14.49;58.96;93779.66;521863;28;874;-46
2023/09/13 00:53:33;;;;;;;3.30;2.00;;;;;;;14.49;59.12;93780.38;521957;28;969;-46
2023/09/13 00:53:48;;;;;;;2.75;1.83;;;;;;;14.48;59.15;93778.94;522571;28;868;-46
2023/09/13 00:54:04;;;;;;;3.37;1.80;;;;;;;14.48;59.33;93778.94;521880;28;917;-46
2023/09/13 00:54:20;;;;;;;3.10;1.80;;;;;;;14.43;59.33;93766.72;519880;28;902;-45
2023/09/13 00:54:35;;;;;;;3.15;1.75;;;;;;;14.48;59.25;93778.94;517839;28;797;-46
2023/09/13 00:54:52;;;;;;;2.60;1.77;;;;;;;14.48;59.08;93772.63;516394;28;792;-45
2023/09/13 00:55:09;;;;;;;2.28;2.00;;;;;;;14.47;59.17;93780.22;517771;28;897;-45
2023/09/13 00:55:25;;;;;;;3.17;1.88;;;;;;;14.46;59.28;93775.97;515793;28;1580;-45
2023/09/13 00:55:41;;;;;;;3.38;1.90;;;;;;;14.38;59.30;93762.13;513768;28;895;-47
2023/09/13 00:55:57;;;;;;;2.47;1.70;;;;;;;14.43;59.52;93775.06;515839;28;840;-45
2023/09/13 00:56:12;;;;;;;3.80;1.77;;;;;;;14.45;59.42;93780.03;515753;28;880;-45
2023/09/13 00:56:28;;;;;;;3.73;1.80;;;;;;;14.46;59.25;93778.00;516637;28;907;-45
2023/09/13 00:56:43;;;;;;;2.05;1.60;;;;;;;14.45;59.39;93782.81;515786;28;988;-45
2023/09/13 00:56:58;;;;;;;1.57;1.47;;;;;;;14.44;59.39;93778.59;515812;28;812;-46
2023/09/13 00:57:14;;;;;;;2.25;1.60;;;;;;;14.44;59.35;93782.09;516397;28;800;-46
2023/09/13 00:57:30;;;;;;;2.70;1.90;;;;;;;14.44;59.36;93779.31;518091;28;915;-46
2023/09/13 00:57:46;;;;;;;1.77;1.67;;;;;;;14.43;59.27;93777.09;520737;28;860;-46
2023/09/13 00:58:02;;;;;;;1.65;1.55;;;;;;;14.43;59.38;93774.31;523958;28;863;-46
2023/09/13 00:58:18;;;;;;;2.08;1.70;;;;;;;14.44;59.32;93776.53;523994;28;870;-45
2023/09/13 00:58:34;;;;;;;3.75;1.73;;;;;;;14.44;59.15;93782.09;523299;28;914;-45
2023/09/13 00:58:51;;;;;;;4.00;1.80;;;;;;;14.43;59.16;93783.41;521910;28;883;-46
2023/09/13 00:59:08;;;;;;;3.20;1.92;;;;;;;14.44;59.49;93784.16;521941;28;847;-45
2023/09/13 00:59:24;;;;;;;2.25;1.60;;;;;;;14.43;59.26;93779.88;521972;28;860;-46
2023/09/13 00:59:39;;;;;;;2.30;1.55;;;;;;;14.42;59.24;93783.97;521910;28;1059;-45
2023/09/13 00:59:55;;;;;;;2.80;1.70;;;;;;;14.42;59.20;93781.19;522929;28;927;-45
2023/09/13 01:00:11;;;;;;;1.70;1.52;;;;;;;14.42;59.14;93775.63;522728;28;654;-46
2023/09/13 01:00:27;;;;;;;2.15;1.58;;;;;;;14.41;59.31;93776.94;521810;28;879;-46
2023/09/13 01:00:42;;;;;;;2.80;1.60;;;;;;;14.41;59.36;93782.47;522023;28;821;-46
2023/09/13 01:00:58;;;;;;;2.27;1.60;;;;;;;14.40;59.19;93781.03;519817;28;907;-47
2023/09/13 01:01:13;;;;;;;1.60;1.50;;;;;;;14.39;59.23;93783.06;519776;28;965;-46
2023/09/13 01:01:30;;;;;;;1.50;1.40;;;;;;;14.38;59.20;93783.59;521932;28;768;-45
2023/09/13 01:01:46;;;;;;;1.80;1.70;;;;;;;14.38;59.27;93784.34;521932;28;1079;-46
2023/09/13 01:02:01;;;;;;;5.07;1.88;;;;;;;14.37;59.34;93780.13;522579;28;892;-45
2023/09/13 01:02:17;;;;;;;4.83;1.77;;;;;;;14.37;59.30;93780.13;524652;28;1062;-46
2023/09/13 01:02:32;;;;;;;1.90;1.70;;;;;;;14.38;59.34;93781.56;526147;28;830;-45
2023/09/13 01:02:48;;;;;;;3.20;1.80;;;;;;;14.38;59.28;93783.59;526408;28;2379;-46
2023/09/13 01:03:04;;;;;;;4.93;1.70;;;;;;;14.29;59.14;93773.13;528179;28;1248;-46
2023/09/13 01:03:23;;;;;;;3.90;1.70;;;;;;;14.39;59.19;93779.53;526643;28;888;-46
2023/09/13 01:03:40;;;;;;;2.20;2.00;;;;;;;14.39;59.12;93787.88;524108;28;1739;-46
2023/09/13 01:03:57;;;;;;;1.75;1.65;;;;;;;14.37;59.16;93780.13;523935;28;875;-46
2023/09/13 01:04:12;;;;;;;1.80;1.70;;;;;;;14.40;59.02;93789.34;523986;28;830;-46
2023/09/13 01:04:27;;;;;;;2.35;1.65;;;;;;;14.36;58.76;93784.19;523946;28;871;-46
2023/09/13 01:04:43;;;;;;;2.27;1.43;;;;;;;14.35;58.86;93777.16;524008;28;914;-46
2023/09/13 01:04:58;;;;;;;1.50;1.40;;;;;;;14.39;58.63;93785.09;523886;28;871;-46
2023/09/13 01:05:15;;;;;;;1.63;1.52;;;;;;;14.40;58.75;93784.53;524010;28;826;-47
2023/09/13 01:05:30;;;;;;;1.58;1.48;;;;;;;14.41;58.76;93793.59;523958;28;898;-45
2023/09/13 01:05:47;;;;;;;1.90;1.58;;;;;;;14.41;58.83;93788.03;524005;28;862;-46
2023/09/13 01:06:02;;;;;;;2.08;1.67;;;;;;;14.41;58.74;93782.47;523986;28;859;-46
2023/09/13 01:06:18;;;;;;;2.20;1.60;;;;;;;14.41;58.98;93788.78;521824;28;840;-46
2023/09/13 01:06:35;;;;;;;1.47;1.37;;;;;;;14.41;58.96;93788.78;522525;28;907;-46
2023/09/13 01:06:50;;;;;;;1.90;1.40;;;;;;;14.41;59.11;93788.78;523947;28;840;-45
2023/09/13 01:07:08;;;;;;;1.98;1.40;;;;;;;14.40;58.99;93781.75;523913;28;949;-46
2023/09/13 01:07:23;;;;;;;1.35;1.25;;;;;;;14.39;58.96;93783.06;524044;28;860;-45
2023/09/13 01:07:40;;;;;;;1.45;1.35;;;;;;;14.39;58.90;93787.88;523991;28;840;-46
2023/09/13 01:07:55;;;;;;;2.00;1.75;;;;;;;14.37;58.86;93785.66;523903;28;870;-47
2023/09/13 01:08:10;;;;;;;2.25;1.92;;;;;;;14.29;58.81;93770.34;521836;28;900;-46
2023/09/13 01:08:27;;;;;;;1.70;1.60;;;;;;;14.35;58.87;93791.06;521891;28;847;-47
2023/09/13 01:08:43;;;;;;;1.65;1.48;;;;;;;14.24;59.03;93771.28;521859;28;947;-45
2023/09/13 01:08:58;;;;;;;2.13;1.70;;;;;;;14.21;59.06;93767.59;522803;28;855;-46
2023/09/13 01:09:14;;;;;;;2.22;1.63;;;;;;;14.31;58.96;93787.91;523922;28;1129;-46
2023/09/13 01:09:30;;;;;;;2.60;1.67;;;;;;;14.31;59.01;93782.34;523853;28;1340;-46
2023/09/13 01:09:46;;;;;;;3.67;1.67;;;;;;;14.30;59.15;93780.91;521859;28;881;-45
2023/09/13 01:10:02;;;;;;;4.63;1.98;;;;;;;14.29;59.15;93784.97;522627;28;958;-45
2023/09/13 01:10:19;;;;;;;2.75;1.90;;;;;;;14.29;59.29;93784.25;523872;28;1541;-46
2023/09/13 01:10:34;;;;;;;1.70;1.60;;;;;;;14.28;59.38;93782.72;524010;28;908;-46
2023/09/13 01:10:50;;;;;;;3.17;1.73;;;;;;;14.28;59.25;93782.72;523948;28;859;-47
2023/09/13 01:11:06;;;;;;;3.47;1.77;;;;;;;14.26;59.70;93780.53;523953;28;1179;-45
2023/09/13 01:11:22;;;;;;;2.28;1.73;;;;;;;14.27;59.77;93781.28;523944;28;896;-46
2023/09/13 01:11:37;;;;;;;1.88;1.55;;;;;;;14.26;60.03;93779.78;523974;28;840;-45
2023/09/13 01:11:53;;;;;;;1.67;1.57;;;;;;;14.25;59.90;93778.31;524153;28;974;-47
2023/09/13 01:12:08;;;;;;;1.73;1.63;;;;;;;14.25;59.96;93783.88;524108;28;855;-45
2023/09/13 01:12:24;;;;;;;2.23;1.80;;;;;;;14.24;59.99;93780.34;524127;28;1054;-46
2023/09/13 01:12:39;;;;;;;2.53;1.98;;;;;;;14.23;60.03;93781.66;524095;28;929;-45
2023/09/13 01:12:54;;;;;;;2.17;1.97;;;;;;;14.23;60.07;93778.88;524015;28;1984;-46
2023/09/13 01:13:10;;;;;;;2.20;2.00;;;;;;;14.23;60.11;93786.44;524111;28;767;-45
2023/09/13 01:13:25;;;;;;;2.42;2.00;;;;;;;14.21;60.32;93775.91;524072;28;878;-45
2023/09/13 01:13:41;;;;;;;2.00;1.80;;;;;;;14.20;60.32;93780.00;524108;28;889;-45
2023/09/13 01:13:56;;;;;;;1.65;1.55;;;;;;;14.21;60.48;93775.16;524018;28;996;-45
2023/09/13 01:14:11;;;;;;;1.43;1.33;;;;;;;14.21;60.67;93780.72;524136;28;1148;-46
2023/09/13 01:14:27;;;;;;;2.23;1.83;;;;;;;14.18;60.60;93777.06;524045;28;1176;-45
2023/09/13 01:14:43;;;;;;;3.15;1.90;;;;;;;14.20;60.69;93782.78;524175;28;779;-45
2023/09/13 01:15:00;;;;;;;2.53;1.70;;;;;;;14.19;60.68;93775.00;523959;28;851;-46
2023/09/13 01:15:15;;;;;;;1.95;1.75;;;;;;;14.20;60.71;93784.81;523978;28;1675;-45
2023/09/13 01:15:35;;;;;;;1.88;1.67;;;;;;;14.18;60.75;93779.84;523891;28;887;-46
2023/09/13 01:16:03;;;;;;;1.85;1.45;;;;;;;14.19;60.77;93783.34;523934;28;1032;-46
2023/09/13 01:16:24;;;;;;;1.70;1.50;;;;;;;14.18;60.74;93781.88;523884;28;958;-45
2023/09/13 01:16:46;;;;;;;2.22;1.85;;;;;;;14.19;60.68;93786.09;523888;28;873;-46
2023/09/13 01:17:10;;;;;;;1.95;1.85;;;;;;;14.18;60.78;93781.88;523966;28;776;-46